createdAt,value
2018-05-21T00:00:05.060Z,17.39
2018-05-21T00:02:16.118Z,17.42
2018-05-21T00:04:27.206Z,17.44
2018-05-21T00:06:38.259Z,17.44
2018-05-21T00:08:49.590Z,17.50
2018-05-21T00:11:00.758Z,17.55
2018-05-21T00:13:11.838Z,17.57
2018-05-21T00:15:23.033Z,17.60
2018-05-21T00:17:36.362Z,17.59
2018-05-21T00:19:47.518Z,17.57
2018-05-21T00:21:58.557Z,17.58
2018-05-21T00:24:09.610Z,17.57
2018-05-21T00:26:20.736Z,17.59
2018-05-21T00:28:31.798Z,17.58
2018-05-21T00:30:43.067Z,17.60
2018-05-21T00:32:54.135Z,17.60
2018-05-21T00:35:05.238Z,17.59
2018-05-21T00:37:16.314Z,17.55
2018-05-21T00:39:27.402Z,17.58
2018-05-21T00:41:38.466Z,17.56
2018-05-21T00:43:49.518Z,17.47
2018-05-21T00:46:00.694Z,17.51
2018-05-21T00:48:11.793Z,17.51
2018-05-21T00:50:22.936Z,17.50
2018-05-21T00:52:34.051Z,17.47
2018-05-21T00:54:57.335Z,17.46
2018-05-21T00:57:08.460Z,17.44
2018-05-21T00:59:19.594Z,17.40
2018-05-21T01:01:30.687Z,17.35
2018-05-21T01:03:41.749Z,17.29
2018-05-21T01:05:52.837Z,17.21
2018-05-21T01:08:03.924Z,17.20
2018-05-21T01:10:15.018Z,17.16
2018-05-21T01:12:26.149Z,17.12
2018-05-21T01:14:37.297Z,17.08
2018-05-21T01:16:48.354Z,17.06
2018-05-21T01:18:59.465Z,17.00
2018-05-21T01:21:10.631Z,16.96
2018-05-21T01:23:21.718Z,16.97
2018-05-21T01:25:32.811Z,16.94
2018-05-21T01:27:43.909Z,16.89
2018-05-21T01:29:54.969Z,16.84
2018-05-21T01:32:06.039Z,16.82
2018-05-21T01:34:17.182Z,16.81
2018-05-21T01:36:28.266Z,16.80
2018-05-21T01:38:39.550Z,16.80
2018-05-21T01:40:50.591Z,16.74
2018-05-21T01:43:01.657Z,16.67
2018-05-21T01:45:12.787Z,16.64
2018-05-21T01:47:23.842Z,16.61
2018-05-21T01:49:35.003Z,16.55
2018-05-21T01:51:46.049Z,16.48
2018-05-21T01:53:57.134Z,16.32
2018-05-21T01:56:08.247Z,16.20
2018-05-21T01:58:19.293Z,16.06
2018-05-21T02:00:30.366Z,15.93
2018-05-21T02:02:41.442Z,15.83
2018-05-21T02:04:52.516Z,15.74
2018-05-21T02:07:03.629Z,15.66
2018-05-21T02:09:14.690Z,15.61
2018-05-21T02:11:25.829Z,15.51
2018-05-21T02:13:36.934Z,15.42
2018-05-21T02:15:48.038Z,15.40
2018-05-21T02:17:59.120Z,15.39
2018-05-21T02:20:10.178Z,15.38
2018-05-21T02:22:21.318Z,15.39
2018-05-21T02:24:32.389Z,15.28
2018-05-21T02:26:43.537Z,15.15
2018-05-21T02:28:54.622Z,15.00
2018-05-21T02:31:05.714Z,14.94
2018-05-21T02:33:16.794Z,14.91
2018-05-21T02:35:27.868Z,14.85
2018-05-21T02:37:39.062Z,14.78
2018-05-21T02:39:50.112Z,14.67
2018-05-21T02:42:01.227Z,14.58
2018-05-21T02:44:12.315Z,14.52
2018-05-21T02:46:23.446Z,14.42
2018-05-21T02:48:34.522Z,14.28
2018-05-21T02:50:45.634Z,14.11
2018-05-21T02:52:56.733Z,14.00
2018-05-21T02:55:07.801Z,13.85
2018-05-21T02:57:18.869Z,13.82
2018-05-21T02:59:30.039Z,13.78
2018-05-21T03:01:41.142Z,13.67
2018-05-21T03:03:52.185Z,13.56
2018-05-21T03:06:03.258Z,13.42
2018-05-21T03:08:14.340Z,13.40
2018-05-21T03:10:25.474Z,13.40
2018-05-21T03:12:36.529Z,13.44
2018-05-21T03:14:47.666Z,13.43
2018-05-21T03:16:58.736Z,13.34
2018-05-21T03:19:09.826Z,13.33
2018-05-21T03:21:20.869Z,13.28
2018-05-21T03:23:31.938Z,13.26
2018-05-21T03:25:43.022Z,13.26
2018-05-21T03:27:54.108Z,13.28
2018-05-21T03:30:05.283Z,13.28
2018-05-21T03:32:16.357Z,13.24
2018-05-21T03:34:27.477Z,13.13
2018-05-21T03:36:39.444Z,13.06
2018-05-21T03:38:50.529Z,13.00
2018-05-21T03:41:01.738Z,13.02
2018-05-21T03:43:12.778Z,12.99
2018-05-21T03:45:23.957Z,12.97
2018-05-21T03:47:35.030Z,13.01
2018-05-21T03:49:46.065Z,13.04
2018-05-21T03:51:57.133Z,12.96
2018-05-21T03:54:08.177Z,12.92
2018-05-21T03:56:19.252Z,12.89
2018-05-21T03:58:42.618Z,12.83
2018-05-21T04:01:05.915Z,12.83
2018-05-21T04:03:29.182Z,12.90
2018-05-21T04:05:40.470Z,12.92
2018-05-21T04:07:51.640Z,12.94
2018-05-21T04:10:02.729Z,12.98
2018-05-21T04:12:13.921Z,13.00
2018-05-21T04:14:25.006Z,13.02
2018-05-21T04:16:36.153Z,13.05
2018-05-21T04:18:47.249Z,13.13
2018-05-21T04:20:58.234Z,13.19
2018-05-21T04:23:09.325Z,13.27
2018-05-21T04:25:20.547Z,13.37
2018-05-21T04:27:31.662Z,13.46
2018-05-21T04:29:42.761Z,13.49
2018-05-21T04:31:53.800Z,13.56
2018-05-21T04:34:04.886Z,13.59
2018-05-21T04:36:15.958Z,13.54
2018-05-21T04:38:27.015Z,13.59
2018-05-21T04:40:38.206Z,13.58
2018-05-21T04:42:49.423Z,13.64
2018-05-21T04:45:00.585Z,13.74
2018-05-21T04:47:11.672Z,13.89
2018-05-21T04:49:22.735Z,14.04
2018-05-21T04:51:33.870Z,14.18
2018-05-21T04:53:44.913Z,14.30
2018-05-21T04:55:55.990Z,14.45
2018-05-21T04:58:07.041Z,14.61
2018-05-21T05:00:18.178Z,14.78
2018-05-21T05:02:29.254Z,14.97
2018-05-21T05:04:40.318Z,15.15
2018-05-21T05:06:51.390Z,15.30
2018-05-21T05:09:02.418Z,15.45
2018-05-21T05:11:13.498Z,15.50
2018-05-21T05:13:24.561Z,15.61
2018-05-21T05:15:35.650Z,15.70
2018-05-21T05:17:46.785Z,15.75
2018-05-21T05:19:57.909Z,15.76
2018-05-21T05:22:08.978Z,15.89
2018-05-21T05:24:20.019Z,16.07
2018-05-21T05:26:31.168Z,16.21
2018-05-21T05:28:43.643Z,16.41
2018-05-21T05:30:54.863Z,16.65
2018-05-21T05:33:06.789Z,16.85
2018-05-21T05:35:17.865Z,17.01
2018-05-21T05:37:28.959Z,17.20
2018-05-21T05:39:40.134Z,17.40
2018-05-21T05:41:51.186Z,17.61
2018-05-21T05:44:02.338Z,17.76
2018-05-21T05:46:13.382Z,17.86
2018-05-21T05:48:24.454Z,18.05
2018-05-21T05:50:35.565Z,18.20
2018-05-21T05:52:46.660Z,18.40
2018-05-21T05:54:57.831Z,18.53
2018-05-21T05:57:08.930Z,18.65
2018-05-21T05:59:20.122Z,18.77
2018-05-21T06:01:31.235Z,18.89
2018-05-21T06:03:42.328Z,19.01
2018-05-21T06:05:53.429Z,19.19
2018-05-21T06:08:04.484Z,19.36
2018-05-21T06:10:15.593Z,19.44
2018-05-21T06:12:26.757Z,19.61
2018-05-21T06:14:37.861Z,19.80
2018-05-21T06:16:48.973Z,19.88
2018-05-21T06:19:00.200Z,20.02
2018-05-21T06:21:11.279Z,20.17
2018-05-21T06:23:22.322Z,20.37
2018-05-21T06:25:33.378Z,20.49
2018-05-21T06:27:44.473Z,20.58
2018-05-21T06:29:55.548Z,20.64
2018-05-21T06:32:06.707Z,20.74
2018-05-21T06:34:17.792Z,20.72
2018-05-21T06:36:28.858Z,20.84
2018-05-21T06:38:39.920Z,21.04
2018-05-21T06:40:50.977Z,21.27
2018-05-21T06:43:02.138Z,21.48
2018-05-21T06:45:13.188Z,21.55
2018-05-21T06:47:24.314Z,21.79
2018-05-21T06:49:35.385Z,21.92
2018-05-21T06:51:46.567Z,22.21
2018-05-21T06:53:57.642Z,22.26
2018-05-21T06:56:08.697Z,22.50
2018-05-21T06:58:19.790Z,22.75
2018-05-21T07:00:30.827Z,22.97
2018-05-21T07:02:41.980Z,22.97
2018-05-21T07:04:53.051Z,22.84
2018-05-21T07:07:04.155Z,23.26
2018-05-21T07:09:15.214Z,23.54
2018-05-21T07:11:26.416Z,23.82
2018-05-21T07:13:37.520Z,23.96
2018-05-21T07:15:48.677Z,23.87
2018-05-21T07:17:59.771Z,23.68
2018-05-21T07:20:10.830Z,23.53
2018-05-21T07:22:21.970Z,23.30
2018-05-21T07:24:33.232Z,23.17
2018-05-21T07:26:44.283Z,23.01
2018-05-21T07:28:55.391Z,23.12
2018-05-21T07:31:06.574Z,23.25
2018-05-21T07:33:17.679Z,23.39
2018-05-21T07:35:28.768Z,23.46
2018-05-21T07:37:39.854Z,23.61
2018-05-21T07:39:51.029Z,23.76
2018-05-21T07:42:02.134Z,23.72
2018-05-21T07:44:13.235Z,23.72
2018-05-21T07:46:24.510Z,23.68
2018-05-21T07:48:35.602Z,23.53
2018-05-21T07:50:46.811Z,23.54
2018-05-21T07:52:57.876Z,23.40
2018-05-21T07:55:08.948Z,23.48
2018-05-21T07:57:20.082Z,23.60
2018-05-21T07:59:31.130Z,23.67
2018-05-21T08:01:42.335Z,23.77
2018-05-21T08:03:53.382Z,23.78
2018-05-21T08:06:04.548Z,23.75
2018-05-21T08:08:15.775Z,23.81
2018-05-21T08:10:26.911Z,23.71
2018-05-21T08:12:42.233Z,23.80
2018-05-21T08:14:54.082Z,23.68
2018-05-21T08:17:05.143Z,23.72
2018-05-21T08:19:16.506Z,23.76
2018-05-21T08:21:27.594Z,23.76
2018-05-21T08:23:38.865Z,23.85
2018-05-21T08:25:50.010Z,23.94
2018-05-21T08:28:01.091Z,23.99
2018-05-21T08:30:12.141Z,24.17
2018-05-21T08:32:23.276Z,24.41
2018-05-21T08:34:34.394Z,24.62
2018-05-21T08:36:45.510Z,24.69
2018-05-21T08:38:56.624Z,24.61
2018-05-21T08:41:07.686Z,24.62
2018-05-21T08:43:18.833Z,24.67
2018-05-21T08:45:35.271Z,24.65
2018-05-21T08:50:08.825Z,24.63
2018-05-21T08:52:20.526Z,24.68
2018-05-21T08:54:32.011Z,24.79
2018-05-21T08:56:43.331Z,24.85
2018-05-21T08:58:54.491Z,24.95
2018-05-21T09:01:05.603Z,24.99
2018-05-21T09:03:16.733Z,25.06
2018-05-21T09:05:27.797Z,25.23
2018-05-21T09:07:38.913Z,25.35
2018-05-21T09:09:50.181Z,25.34
2018-05-21T09:12:01.301Z,25.16
2018-05-21T09:14:12.434Z,25.19
2018-05-21T09:16:23.653Z,25.25
2018-05-21T09:18:34.671Z,25.28
2018-05-21T09:20:45.781Z,25.35
2018-05-21T09:22:56.912Z,25.41
2018-05-21T09:25:08.026Z,25.41
2018-05-21T09:27:19.134Z,25.48
2018-05-21T09:29:30.237Z,25.54
2018-05-21T09:31:41.459Z,25.61
2018-05-21T09:33:52.575Z,25.73
2018-05-21T09:36:03.668Z,25.80
2018-05-21T09:38:14.811Z,25.88
2018-05-21T09:40:25.857Z,25.98
2018-05-21T09:42:37.101Z,26.01
2018-05-21T09:44:48.226Z,26.04
2018-05-21T09:46:59.476Z,26.01
2018-05-21T09:49:10.603Z,26.00
2018-05-21T09:51:21.766Z,26.05
2018-05-21T09:53:33.010Z,26.09
2018-05-21T09:55:44.082Z,26.14
2018-05-21T09:57:55.161Z,25.95
2018-05-21T10:00:06.250Z,25.96
2018-05-21T10:02:17.327Z,26.02
2018-05-21T10:04:28.421Z,26.10
2018-05-21T10:06:39.639Z,26.16
2018-05-21T10:08:50.782Z,26.24
2018-05-21T10:11:01.886Z,26.27
2018-05-21T10:13:13.030Z,26.22
2018-05-21T10:15:24.130Z,26.17
2018-05-21T10:17:35.222Z,26.19
2018-05-21T10:19:46.336Z,26.25
2018-05-21T10:21:57.414Z,26.30
2018-05-21T10:24:08.540Z,26.42
2018-05-21T10:26:19.613Z,26.56
2018-05-21T10:28:30.803Z,26.56
2018-05-21T10:30:41.907Z,26.43
2018-05-21T10:32:52.996Z,26.37
2018-05-21T10:35:04.088Z,26.41
2018-05-21T10:37:15.164Z,26.30
2018-05-21T10:39:26.291Z,26.39
2018-05-21T10:41:37.472Z,26.47
2018-05-21T10:43:48.590Z,26.51
2018-05-21T10:45:59.755Z,26.48
2018-05-21T10:48:10.851Z,26.44
2018-05-21T10:50:21.986Z,26.38
2018-05-21T10:52:33.038Z,26.42
2018-05-21T10:54:44.138Z,26.54
2018-05-21T10:56:55.234Z,26.51
2018-05-21T10:59:06.319Z,26.62
2018-05-21T11:01:17.428Z,26.74
2018-05-21T11:03:28.487Z,26.73
2018-05-21T11:05:39.628Z,26.81
2018-05-21T11:07:51.435Z,26.79
2018-05-21T11:10:03.515Z,26.81
2018-05-21T11:12:16.667Z,26.88
2018-05-21T11:14:28.110Z,26.78
2018-05-21T11:16:39.211Z,26.88
2018-05-21T11:18:50.314Z,26.90
2018-05-21T11:21:01.524Z,26.95
2018-05-21T11:23:12.596Z,27.10
2018-05-21T11:25:23.803Z,27.25
2018-05-21T11:27:34.872Z,27.20
2018-05-21T11:29:46.875Z,27.26
2018-05-21T11:31:58.076Z,27.40
2018-05-21T11:34:09.865Z,27.52
2018-05-21T11:36:21.575Z,27.60
2018-05-21T11:38:34.252Z,27.65
2018-05-21T11:40:45.364Z,27.67
2018-05-21T11:42:56.506Z,27.76
2018-05-21T11:45:07.578Z,27.67
2018-05-21T11:47:18.727Z,27.68
2018-05-21T11:49:31.152Z,27.70
2018-05-21T11:51:42.209Z,27.73
2018-05-21T11:53:53.287Z,27.60
2018-05-21T11:56:04.846Z,27.45
2018-05-21T11:58:16.050Z,27.43
2018-05-21T12:00:27.157Z,27.44
2018-05-21T12:02:38.337Z,27.43
2018-05-21T12:04:49.461Z,27.48
2018-05-21T12:07:00.541Z,27.56
2018-05-21T12:09:12.319Z,27.32
2018-05-21T12:11:23.473Z,26.80
2018-05-21T12:13:34.608Z,26.62
2018-05-21T12:15:45.778Z,26.54
2018-05-21T12:17:56.869Z,26.64
2018-05-21T12:20:07.952Z,26.80
2018-05-21T12:22:19.109Z,26.83
2018-05-21T12:24:30.185Z,26.79
2018-05-21T12:26:41.481Z,26.82
2018-05-21T12:28:52.594Z,26.95
2018-05-21T12:31:03.756Z,27.05
2018-05-21T12:33:14.854Z,27.08
2018-05-21T12:35:25.954Z,27.10
2018-05-21T12:37:37.075Z,27.15
2018-05-21T12:39:48.248Z,27.13
2018-05-21T12:41:59.254Z,27.19
2018-05-21T12:44:10.360Z,27.29
2018-05-21T12:46:21.525Z,27.33
2018-05-21T12:48:32.880Z,27.31
2018-05-21T12:50:43.985Z,27.15
2018-05-21T12:52:55.070Z,27.09
2018-05-21T12:55:06.131Z,27.14
2018-05-21T12:57:17.227Z,27.18
2018-05-21T12:59:29.035Z,27.18
2018-05-21T13:01:40.137Z,27.11
2018-05-21T13:03:51.442Z,27.02
2018-05-21T13:06:03.099Z,27.01
2018-05-21T13:08:15.042Z,27.10
2018-05-21T13:10:26.980Z,27.16
2018-05-21T13:12:38.098Z,27.23
2018-05-21T13:14:49.201Z,27.27
2018-05-21T13:17:00.351Z,27.31
2018-05-21T13:19:11.518Z,27.36
2018-05-21T13:21:22.641Z,27.34
2018-05-21T13:23:33.796Z,27.26
2018-05-21T13:25:46.061Z,27.07
2018-05-21T13:27:57.188Z,26.88
2018-05-21T13:30:09.020Z,26.73
2018-05-21T13:32:20.046Z,26.59
2018-05-21T13:34:31.182Z,26.44
2018-05-21T13:36:42.296Z,26.37
2018-05-21T13:38:53.397Z,26.38
2018-05-21T13:41:04.523Z,26.47
2018-05-21T13:43:15.650Z,26.60
2018-05-21T13:45:26.689Z,26.70
2018-05-21T13:47:37.824Z,26.82
2018-05-21T13:49:48.892Z,26.92
2018-05-21T13:52:00.089Z,27.03
2018-05-21T13:54:11.174Z,27.11
2018-05-21T13:56:22.281Z,27.13
2018-05-21T13:58:33.354Z,27.13
2018-05-21T14:00:44.512Z,27.13
2018-05-21T14:02:55.646Z,27.20
2018-05-21T14:05:06.726Z,27.15
2018-05-21T14:07:17.951Z,27.10
2018-05-21T14:09:29.040Z,27.12
2018-05-21T14:11:40.262Z,27.13
2018-05-21T14:13:51.370Z,27.05
2018-05-21T14:16:02.570Z,27.00
2018-05-21T14:18:13.709Z,26.97
2018-05-21T14:20:24.842Z,27.02
2018-05-21T14:22:35.998Z,26.98
2018-05-21T14:24:47.085Z,26.92
2018-05-21T14:26:58.181Z,26.93
2018-05-21T14:29:09.278Z,26.97
2018-05-21T14:31:20.352Z,26.95
2018-05-21T14:33:31.485Z,26.91
2018-05-21T14:35:42.623Z,26.91
2018-05-21T14:37:53.758Z,26.97
2018-05-21T14:40:04.922Z,26.97
2018-05-21T14:42:16.114Z,27.02
2018-05-21T14:44:27.203Z,27.08
2018-05-21T14:46:38.393Z,27.07
2018-05-21T14:48:49.494Z,27.05
2018-05-21T14:51:00.623Z,26.99
2018-05-21T14:53:11.742Z,26.99
2018-05-21T14:55:22.891Z,26.95
2018-05-21T14:57:33.982Z,26.98
2018-05-21T14:59:45.128Z,27.02
2018-05-21T15:01:56.266Z,27.05
2018-05-21T15:04:07.368Z,27.08
2018-05-21T15:06:18.538Z,27.15
2018-05-21T15:08:29.601Z,27.23
2018-05-21T15:10:40.725Z,27.35
2018-05-21T15:12:51.886Z,27.43
2018-05-21T15:15:03.026Z,27.49
2018-05-21T15:17:14.179Z,27.50
2018-05-21T15:19:25.259Z,27.53
2018-05-21T15:21:36.327Z,27.52
2018-05-21T15:23:47.417Z,27.43
2018-05-21T15:25:58.574Z,27.31
2018-05-21T15:28:09.673Z,27.27
2018-05-21T15:30:20.769Z,27.29
2018-05-21T15:32:31.931Z,27.16
2018-05-21T15:34:42.984Z,27.06
2018-05-21T15:36:54.203Z,26.86
2018-05-21T15:39:05.449Z,26.82
2018-05-21T15:41:16.717Z,26.53
2018-05-21T15:43:27.810Z,26.30
2018-05-21T15:45:38.884Z,26.14
2018-05-21T15:47:50.002Z,25.93
2018-05-21T15:50:01.089Z,25.49
2018-05-21T15:52:12.172Z,25.11
2018-05-21T15:54:23.248Z,24.70
2018-05-21T15:56:34.450Z,24.41
2018-05-21T15:58:45.528Z,24.19
2018-05-21T16:00:56.681Z,23.98
2018-05-21T16:03:07.745Z,23.82
2018-05-21T16:05:18.922Z,23.60
2018-05-21T16:07:30.012Z,23.37
2018-05-21T16:09:41.114Z,22.66
2018-05-21T16:11:52.241Z,22.14
2018-05-21T16:14:03.340Z,21.82
2018-05-21T16:16:14.505Z,21.67
2018-05-21T16:18:25.592Z,21.49
2018-05-21T16:20:36.687Z,21.39
2018-05-21T16:22:47.803Z,21.24
2018-05-21T16:24:58.875Z,21.04
2018-05-21T16:27:09.982Z,20.74
2018-05-21T16:29:21.058Z,20.27
2018-05-21T16:31:32.349Z,19.56
2018-05-21T16:33:43.480Z,19.36
2018-05-21T16:35:54.678Z,19.40
2018-05-21T16:38:05.816Z,19.43
2018-05-21T16:40:16.912Z,19.46
2018-05-21T16:42:27.997Z,19.56
2018-05-21T16:44:39.072Z,19.47
2018-05-21T16:46:50.240Z,19.43
2018-05-21T16:49:01.334Z,19.28
2018-05-21T16:51:12.475Z,19.14
2018-05-21T16:53:23.570Z,18.95
2018-05-21T16:55:34.850Z,18.82
2018-05-21T16:57:45.943Z,18.84
2018-05-21T16:59:57.074Z,18.81
2018-05-21T17:02:08.222Z,18.82
2018-05-21T17:04:19.310Z,18.86
2018-05-21T17:06:30.487Z,18.95
2018-05-21T17:08:41.630Z,19.06
2018-05-21T17:10:52.775Z,19.11
2018-05-21T17:13:03.853Z,19.13
2018-05-21T17:15:15.143Z,19.14
2018-05-21T17:17:26.320Z,19.31
2018-05-21T17:19:37.484Z,19.41
2018-05-21T17:21:48.687Z,19.52
2018-05-21T17:23:59.880Z,19.68
2018-05-21T17:26:11.074Z,19.82
2018-05-21T17:28:22.171Z,19.91
2018-05-21T17:30:33.236Z,19.98
2018-05-21T17:32:44.334Z,20.04
2018-05-21T17:34:55.394Z,20.07
2018-05-21T17:37:06.532Z,20.09
2018-05-21T17:39:17.667Z,20.13
2018-05-21T17:41:28.854Z,20.17
2018-05-21T17:43:39.970Z,20.20
2018-05-21T17:45:51.095Z,20.21
2018-05-21T17:48:02.251Z,20.30
2018-05-21T17:50:13.310Z,20.34
2018-05-21T17:52:24.397Z,20.32
2018-05-21T17:54:35.462Z,20.27
2018-05-21T17:56:46.559Z,20.21
2018-05-21T17:58:57.650Z,20.18
2018-05-21T18:01:08.794Z,20.26
2018-05-21T18:03:19.880Z,20.18
2018-05-21T18:05:31.094Z,20.06
2018-05-21T18:07:42.255Z,19.99
2018-05-21T18:09:53.373Z,20.02
2018-05-21T18:12:04.441Z,19.92
2018-05-21T18:14:15.514Z,19.80
2018-05-21T18:16:26.714Z,19.65
2018-05-21T18:18:37.850Z,19.55
2018-05-21T18:20:49.013Z,19.49
2018-05-21T18:23:00.066Z,19.59
2018-05-21T18:25:11.251Z,19.51
2018-05-21T18:27:22.342Z,19.42
2018-05-21T18:29:33.426Z,19.39
2018-05-21T18:31:44.535Z,19.34
2018-05-21T18:33:55.645Z,19.35
2018-05-21T18:36:06.906Z,19.40
2018-05-21T18:38:17.951Z,19.40
2018-05-21T18:40:29.118Z,19.24
2018-05-21T18:42:40.293Z,19.20
2018-05-21T18:44:51.354Z,19.12
2018-05-21T18:47:02.418Z,19.15
2018-05-21T18:49:13.483Z,19.08
2018-05-21T18:51:24.545Z,19.05
2018-05-21T18:53:35.669Z,19.03
2018-05-21T18:55:46.895Z,19.02
2018-05-21T18:57:58.024Z,18.82
2018-05-21T19:00:09.116Z,18.84
2018-05-21T19:02:20.247Z,18.83
2018-05-21T19:04:31.367Z,18.85
2018-05-21T19:06:42.494Z,18.89
2018-05-21T19:08:53.595Z,18.97
2018-05-21T19:11:04.704Z,19.07
2018-05-21T19:13:15.817Z,19.12
2018-05-21T19:15:26.993Z,19.16
2018-05-21T19:17:38.118Z,19.16
2018-05-21T19:19:49.358Z,19.13
2018-05-21T19:22:01.406Z,19.19
2018-05-21T19:24:14.182Z,19.17
2018-05-21T19:26:25.277Z,19.13
2018-05-21T19:28:36.476Z,19.13
2018-05-21T19:30:47.705Z,19.09
2018-05-21T19:32:58.812Z,19.13
2018-05-21T19:35:09.933Z,19.13
2018-05-21T19:37:21.634Z,19.08
2018-05-21T19:39:32.768Z,19.08
2018-05-21T19:41:43.875Z,18.98
2018-05-21T19:43:54.948Z,18.94
2018-05-21T19:46:06.116Z,18.93
2018-05-21T19:48:17.266Z,18.81
2018-05-21T19:50:28.426Z,18.79
2018-05-21T19:52:39.585Z,18.73
2018-05-21T19:54:50.671Z,18.73
2018-05-21T19:57:01.782Z,18.71
2018-05-21T19:59:12.877Z,18.66
2018-05-21T20:01:23.973Z,18.71
2018-05-21T20:03:35.746Z,18.73
2018-05-21T20:05:46.807Z,18.74
2018-05-21T20:07:57.907Z,18.70
2018-05-21T20:10:08.982Z,18.69
2018-05-21T20:12:20.158Z,18.69
2018-05-21T20:14:31.412Z,18.60
2018-05-21T20:16:42.545Z,18.58
2018-05-21T20:18:53.660Z,18.59
2018-05-21T20:21:04.762Z,18.61
2018-05-21T20:23:16.000Z,18.61
2018-05-21T20:25:26.996Z,18.62
2018-05-21T20:27:38.068Z,18.64
2018-05-21T20:29:49.844Z,18.64
2018-05-21T20:32:00.934Z,18.64
2018-05-21T20:34:11.998Z,18.64
2018-05-21T20:36:23.119Z,18.59
2018-05-21T20:38:34.199Z,18.48
2018-05-21T20:40:45.315Z,18.44
2018-05-21T20:42:56.391Z,18.28
2018-05-21T20:45:07.490Z,18.18
2018-05-21T20:47:18.622Z,18.15
2018-05-21T20:49:29.713Z,18.06
2018-05-21T20:51:40.807Z,17.98
2018-05-21T20:53:51.888Z,17.95
2018-05-21T20:56:02.963Z,17.85
2018-05-21T20:58:14.112Z,17.73
2018-05-21T21:00:25.219Z,17.65
2018-05-21T21:02:36.374Z,17.66
2018-05-21T21:04:47.577Z,17.61
2018-05-21T21:06:58.674Z,17.58
2018-05-21T21:09:10.029Z,17.55
2018-05-21T21:11:21.129Z,17.49
2018-05-21T21:13:32.177Z,17.48
2018-05-21T21:15:43.259Z,17.49
2018-05-21T21:17:54.352Z,17.43
2018-05-21T21:20:05.639Z,17.34
2018-05-21T21:22:16.684Z,17.27
2018-05-21T21:24:27.786Z,17.27
2018-05-21T21:26:38.838Z,17.31
2018-05-21T21:28:50.191Z,17.36
2018-05-21T21:31:01.270Z,17.33
2018-05-21T21:33:12.334Z,17.33
2018-05-21T21:35:23.457Z,17.31
2018-05-21T21:37:34.724Z,17.25
2018-05-21T21:39:45.883Z,17.18
2018-05-21T21:41:56.954Z,17.10
2018-05-21T21:44:08.184Z,16.92
2018-05-21T21:46:19.251Z,16.88
2018-05-21T21:48:30.410Z,16.90
2018-05-21T21:50:41.506Z,16.90
2018-05-21T21:52:52.779Z,16.86
2018-05-21T21:55:03.848Z,16.81
2018-05-21T21:57:14.902Z,16.81
2018-05-21T21:59:25.962Z,16.81
2018-05-21T22:01:37.091Z,16.67
2018-05-21T22:03:48.174Z,16.57
2018-05-21T22:05:59.291Z,16.49
2018-05-21T22:08:10.359Z,16.48
2018-05-21T22:10:21.571Z,16.52
2018-05-21T22:12:32.666Z,16.52
2018-05-21T22:14:43.752Z,16.43
2018-05-21T22:16:54.860Z,16.36
2018-05-21T22:19:05.980Z,16.38
2018-05-21T22:21:17.066Z,16.34
2018-05-21T22:23:28.159Z,16.30
2018-05-21T22:25:39.288Z,16.28
2018-05-21T22:27:50.378Z,16.22
2018-05-21T22:30:01.484Z,16.23
2018-05-21T22:32:12.584Z,16.33
2018-05-21T22:34:23.648Z,16.42
2018-05-21T22:36:34.739Z,16.42
2018-05-21T22:38:45.890Z,16.42
2018-05-21T22:40:56.948Z,16.33
2018-05-21T22:43:08.094Z,16.24
2018-05-21T22:45:19.144Z,16.16
2018-05-21T22:47:30.187Z,16.14
2018-05-21T22:49:41.294Z,16.01
2018-05-21T22:51:52.394Z,16.07
2018-05-21T22:54:03.558Z,16.08
2018-05-21T22:56:14.638Z,16.06
2018-05-21T22:58:25.806Z,16.09
2018-05-21T23:00:36.894Z,16.06
2018-05-21T23:02:48.002Z,16.04
2018-05-21T23:04:59.059Z,16.03
2018-05-21T23:07:10.183Z,16.00
2018-05-21T23:09:21.286Z,16.03
2018-05-21T23:11:32.363Z,16.10
2018-05-21T23:13:43.675Z,16.16
2018-05-21T23:15:54.850Z,16.18
2018-05-21T23:18:05.993Z,16.19
2018-05-21T23:20:17.049Z,16.23
2018-05-21T23:22:40.359Z,16.29
2018-05-21T23:24:51.476Z,16.31
2018-05-21T23:27:02.722Z,16.31
2018-05-21T23:29:13.782Z,16.33
2018-05-21T23:31:24.887Z,16.38
2018-05-21T23:33:35.969Z,16.43
2018-05-21T23:35:47.043Z,16.43
2018-05-21T23:37:58.284Z,16.42
2018-05-21T23:40:09.338Z,16.37
2018-05-21T23:42:20.465Z,16.32
2018-05-21T23:44:31.658Z,16.30
2018-05-21T23:46:42.738Z,16.26
2018-05-21T23:48:53.834Z,16.21
2018-05-21T23:51:04.982Z,16.19
2018-05-21T23:53:15.938Z,16.18
2018-05-21T23:55:27.046Z,16.17
2018-05-21T23:57:38.174Z,16.14
2018-05-21T23:59:49.296Z,16.11
